createdAt,value
2022-08-18T00:02:15.425Z,98802.00
2022-08-18T00:04:46.825Z,98794.00
2022-08-18T00:07:30.325Z,98794.00
2022-08-18T00:09:57.414Z,98809.00
2022-08-18T00:12:57.153Z,98810.00
2022-08-18T00:15:28.727Z,98822.00
2022-08-18T00:18:04.362Z,98815.00
2022-08-18T00:20:37.304Z,98812.00
2022-08-18T00:23:04.208Z,98807.00
2022-08-18T00:25:37.282Z,98818.00
2022-08-18T00:28:04.568Z,98809.00
2022-08-18T00:30:38.288Z,98808.00
2022-08-18T00:33:05.177Z,98801.00
2022-08-18T00:35:44.327Z,98810.00
2022-08-18T00:38:24.454Z,98803.00
2022-08-18T00:41:00.313Z,98805.00
2022-08-18T00:43:42.270Z,98807.00
2022-08-18T00:46:29.349Z,98808.00
2022-08-18T00:48:56.997Z,98797.00
2022-08-18T00:51:43.294Z,98823.00
2022-08-18T00:54:25.361Z,98850.00
2022-08-18T00:56:55.215Z,98864.00
2022-08-18T00:59:39.344Z,98869.00
2022-08-18T01:02:07.298Z,98857.00
2022-08-18T01:05:15.343Z,98834.00
2022-08-18T01:07:53.469Z,98809.00
2022-08-18T01:10:22.675Z,98782.00
2022-08-18T01:13:04.328Z,98755.00
2022-08-18T01:15:31.450Z,98730.00
2022-08-18T01:18:07.324Z,98685.00
2022-08-18T01:21:05.326Z,98664.00
2022-08-18T01:23:32.200Z,98666.00
2022-08-18T01:26:05.376Z,98685.00
2022-08-18T01:28:41.327Z,98688.00
2022-08-18T01:31:15.344Z,98687.00
2022-08-18T01:33:43.633Z,98657.00
2022-08-18T01:36:24.333Z,98659.00
2022-08-18T01:38:52.401Z,98643.00
2022-08-18T01:41:30.863Z,98645.00
2022-08-18T01:43:59.417Z,98638.00
2022-08-18T01:46:34.383Z,98635.00
2022-08-18T01:49:01.530Z,98627.00
2022-08-18T01:51:40.699Z,98630.00
2022-08-18T01:54:10.811Z,98636.00
2022-08-18T01:56:44.358Z,98616.00
2022-08-18T01:59:11.478Z,98607.00
2022-08-18T02:01:48.833Z,98621.00
2022-08-18T02:04:37.845Z,98605.00
2022-08-18T02:07:15.430Z,98594.00
2022-08-18T02:09:43.280Z,98603.00
2022-08-18T02:12:17.391Z,98607.00
2022-08-18T02:14:44.308Z,98611.00
2022-08-18T02:17:19.347Z,98631.00
2022-08-18T02:19:47.069Z,98636.00
2022-08-18T02:22:26.356Z,98636.00
2022-08-18T02:24:53.261Z,98618.00
2022-08-18T02:27:26.383Z,98615.00
2022-08-18T02:29:53.331Z,98600.00
2022-08-18T02:32:26.374Z,98584.00
2022-08-18T02:35:03.368Z,98577.00
2022-08-18T02:37:42.051Z,98578.00
2022-08-18T02:40:17.412Z,98574.00
2022-08-18T02:42:52.378Z,98579.00
2022-08-18T02:45:19.308Z,98561.00
2022-08-18T02:47:57.376Z,98557.00
2022-08-18T02:50:24.285Z,98547.00
2022-08-18T02:52:51.146Z,98563.00
2022-08-18T02:55:24.380Z,98569.00
2022-08-18T02:57:51.317Z,98590.00
2022-08-18T03:00:25.377Z,98605.00
2022-08-18T03:02:52.401Z,98610.00
2022-08-18T03:05:26.453Z,98612.00
2022-08-18T03:07:59.391Z,98608.00
2022-08-18T03:10:34.205Z,98596.00
2022-08-18T03:13:01.794Z,98605.00
2022-08-18T03:15:35.386Z,98610.00
2022-08-18T03:18:02.265Z,98615.00
2022-08-18T03:20:35.398Z,98602.00
2022-08-18T03:23:05.747Z,98603.00
2022-08-18T03:25:43.418Z,98617.00
2022-08-18T03:28:10.280Z,98605.00
2022-08-18T03:30:37.138Z,98602.00
2022-08-18T03:33:10.411Z,98598.00
2022-08-18T03:35:37.430Z,98601.00
2022-08-18T03:38:11.416Z,98587.00
2022-08-18T03:40:38.294Z,98579.00
2022-08-18T03:43:50.338Z,98578.00
2022-08-18T03:46:04.657Z,98557.00
2022-08-18T03:48:38.425Z,98560.00
2022-08-18T03:51:15.535Z,98557.00
2022-08-18T03:53:49.406Z,98567.00
2022-08-18T03:56:32.469Z,98582.00
2022-08-18T03:59:07.870Z,98580.00
2022-08-18T04:01:44.492Z,98559.00
2022-08-18T04:04:14.004Z,98554.00
2022-08-18T04:06:56.438Z,98556.00
2022-08-18T04:09:23.524Z,98535.00
2022-08-18T04:11:57.434Z,98547.00
2022-08-18T04:14:32.447Z,98550.00
2022-08-18T04:16:59.542Z,98548.00
2022-08-18T04:19:33.438Z,98550.00
2022-08-18T04:22:00.971Z,98554.00
2022-08-18T04:24:35.906Z,98552.00
2022-08-18T04:27:03.656Z,98544.00
2022-08-18T04:29:37.460Z,98509.00
2022-08-18T04:32:04.629Z,98498.00
2022-08-18T04:34:31.708Z,98479.00
2022-08-18T04:37:05.450Z,98460.00
2022-08-18T04:39:32.381Z,98475.00
2022-08-18T04:42:05.495Z,98487.00
2022-08-18T04:44:32.423Z,98508.00
2022-08-18T04:47:00.271Z,98536.00
2022-08-18T04:49:33.465Z,98541.00
2022-08-18T04:52:33.997Z,98536.00
2022-08-18T04:54:53.471Z,98558.00
2022-08-18T04:57:20.491Z,98561.00
2022-08-18T04:59:56.462Z,98579.00
2022-08-18T05:02:29.477Z,98597.00
2022-08-18T05:04:56.451Z,98596.00
2022-08-18T05:07:29.500Z,98580.00
2022-08-18T05:09:56.408Z,98607.00
2022-08-18T05:12:26.156Z,98597.00
2022-08-18T05:15:00.500Z,98619.00
2022-08-18T05:17:27.358Z,98634.00
2022-08-18T05:20:10.509Z,98639.00
2022-08-18T05:22:46.542Z,98636.00
2022-08-18T05:25:13.422Z,98619.00
2022-08-18T05:27:48.605Z,98614.00
2022-08-18T05:30:22.495Z,98632.00
2022-08-18T05:32:55.508Z,98634.00
2022-08-18T05:35:32.517Z,98625.00
2022-08-18T05:38:33.497Z,98627.00
2022-08-18T05:41:19.520Z,98634.00
2022-08-18T05:43:51.189Z,98649.00
2022-08-18T05:46:25.509Z,98656.00
2022-08-18T05:48:52.387Z,98664.00
2022-08-18T05:51:35.501Z,98690.00
2022-08-18T05:54:03.100Z,98666.00
2022-08-18T05:56:40.499Z,98678.00
2022-08-18T05:59:13.567Z,98701.00
2022-08-18T06:01:42.374Z,98705.00
2022-08-18T06:04:29.526Z,98701.00
2022-08-18T06:06:56.417Z,98703.00
2022-08-18T06:09:44.500Z,98699.00
2022-08-18T06:12:37.639Z,98694.00
2022-08-18T06:15:42.523Z,98688.00
2022-08-18T06:18:35.547Z,98686.00
2022-08-18T06:21:24.681Z,98681.00
2022-08-18T06:24:35.522Z,98662.00
2022-08-18T06:27:27.007Z,98655.00
2022-08-18T06:30:14.517Z,98631.00
2022-08-18T06:33:09.548Z,98608.00
2022-08-18T06:35:45.689Z,98608.00
2022-08-18T06:38:57.548Z,98610.00
2022-08-18T06:41:48.810Z,98610.00
2022-08-18T06:44:35.567Z,98585.00
2022-08-18T06:47:46.577Z,98542.00
2022-08-18T06:50:52.141Z,98502.00
2022-08-18T06:53:27.762Z,98506.00
2022-08-18T06:55:55.145Z,98504.00
2022-08-18T06:58:33.585Z,98477.00
2022-08-18T07:01:02.423Z,98483.00
2022-08-18T07:03:49.579Z,98493.00
2022-08-18T07:06:22.444Z,98497.00
2022-08-18T07:08:57.565Z,98518.00
2022-08-18T07:11:31.870Z,98509.00
2022-08-18T07:14:28.566Z,98528.00
2022-08-18T07:17:19.655Z,98524.00
2022-08-18T07:20:23.718Z,98526.00
2022-08-18T07:22:59.640Z,98509.00
2022-08-18T07:25:48.584Z,98505.00
2022-08-18T07:28:46.860Z,98484.00
2022-08-18T07:31:53.578Z,98492.00
2022-08-18T07:34:42.577Z,98497.00
2022-08-18T07:37:30.636Z,98516.00
2022-08-18T07:40:07.267Z,98527.00
2022-08-18T07:43:01.238Z,98521.00
2022-08-18T07:45:33.634Z,98543.00
2022-08-18T07:48:39.946Z,98551.00
2022-08-18T07:51:36.950Z,98558.00
2022-08-18T07:54:49.309Z,98555.00
2022-08-18T07:57:51.616Z,98558.00
2022-08-18T08:00:58.618Z,98569.00
2022-08-18T08:03:45.622Z,98549.00
2022-08-18T08:06:28.090Z,98513.00
2022-08-18T08:09:35.620Z,98528.00
2022-08-18T08:12:32.892Z,98540.00
2022-08-18T08:15:41.627Z,98526.00
2022-08-18T08:18:41.318Z,98506.00
2022-08-18T08:21:22.612Z,98497.00
2022-08-18T08:24:26.130Z,98489.00
2022-08-18T08:27:45.649Z,98480.00
2022-08-18T08:30:25.637Z,98471.00
2022-08-18T08:33:31.921Z,98466.00
2022-08-18T08:36:34.646Z,98468.00
2022-08-18T08:39:16.714Z,98455.00
2022-08-18T08:42:31.954Z,98435.00
2022-08-18T08:45:04.640Z,98416.00
2022-08-18T08:47:46.292Z,98403.00
2022-08-18T08:50:32.650Z,98426.00
2022-08-18T08:53:46.653Z,98426.00
2022-08-18T08:56:15.097Z,98459.00
2022-08-18T08:59:06.665Z,98462.00
2022-08-18T09:01:55.452Z,98486.00
2022-08-18T09:05:07.446Z,98489.00
2022-08-18T09:08:33.703Z,98498.00
2022-08-18T09:11:24.661Z,98488.00
2022-08-18T09:14:29.658Z,98488.00
2022-08-18T09:17:43.661Z,98488.00
2022-08-18T09:20:31.541Z,98487.00
2022-08-18T09:23:27.657Z,98500.00
2022-08-18T09:26:03.689Z,98498.00
2022-08-18T09:28:37.717Z,98502.00
2022-08-18T09:31:10.691Z,98501.00
2022-08-18T09:33:40.307Z,98504.00
2022-08-18T09:36:36.674Z,98516.00
2022-08-18T09:39:06.593Z,98514.00
2022-08-18T09:41:49.232Z,98518.00
2022-08-18T09:44:55.681Z,98505.00
2022-08-18T09:47:22.520Z,98503.00
2022-08-18T09:50:27.108Z,98503.00
2022-08-18T09:53:02.472Z,98490.00
2022-08-18T09:55:37.678Z,98491.00
2022-08-18T09:58:17.248Z,98478.00
2022-08-18T10:00:50.948Z,98476.00
2022-08-18T10:03:31.297Z,98464.00
2022-08-18T10:06:07.335Z,98464.00
2022-08-18T10:09:44.938Z,98459.00
2022-08-18T10:12:18.118Z,98464.00
2022-08-18T10:15:33.556Z,98465.00
2022-08-18T10:18:25.892Z,98476.00
2022-08-18T10:21:04.718Z,98478.00
2022-08-18T10:24:35.091Z,98495.00
2022-08-18T10:27:05.713Z,98492.00
2022-08-18T10:29:45.525Z,98499.00
2022-08-18T10:32:20.725Z,98493.00
2022-08-18T10:34:52.835Z,98502.00
2022-08-18T10:37:43.504Z,98494.00
2022-08-18T10:40:13.035Z,98498.00
2022-08-18T10:46:25.330Z,98499.00
2022-08-18T10:49:32.713Z,98501.00
2022-08-18T10:52:54.413Z,98500.00
2022-08-18T10:55:50.166Z,98488.00
2022-08-18T10:59:07.740Z,98478.00
2022-08-18T11:02:11.739Z,98472.00
2022-08-18T11:04:59.447Z,98484.00
2022-08-18T11:07:35.755Z,98489.00
2022-08-18T11:11:05.602Z,98489.00
2022-08-18T11:14:13.281Z,98498.00
2022-08-18T11:17:14.755Z,98503.00
2022-08-18T11:19:50.813Z,98500.00
2022-08-18T11:22:34.345Z,98506.00
2022-08-18T11:25:06.415Z,98503.00
2022-08-18T11:27:44.757Z,98514.00
2022-08-18T11:30:19.744Z,98516.00
2022-08-18T11:32:53.512Z,98507.00
2022-08-18T11:35:35.064Z,98500.00
2022-08-18T11:38:12.449Z,98491.00
2022-08-18T11:41:24.796Z,98494.00
2022-08-18T11:44:18.124Z,98503.00
2022-08-18T11:46:52.558Z,98500.00
2022-08-18T11:49:49.580Z,98499.00
2022-08-18T11:52:35.096Z,98514.00
2022-08-18T11:55:14.463Z,98504.00
2022-08-18T11:58:01.770Z,98502.00
2022-08-18T12:00:52.804Z,98512.00
2022-08-18T12:03:19.634Z,98504.00
2022-08-18T12:06:02.785Z,98509.00
2022-08-18T12:08:56.697Z,98525.00
2022-08-18T12:11:57.823Z,98527.00
2022-08-18T12:14:30.456Z,98531.00
2022-08-18T12:17:21.809Z,98528.00
2022-08-18T12:19:48.780Z,98529.00
2022-08-18T12:22:36.831Z,98507.00
2022-08-18T12:25:14.842Z,98506.00
2022-08-18T12:27:51.512Z,98508.00
2022-08-18T12:30:24.803Z,98524.00
2022-08-18T12:32:56.401Z,98528.00
2022-08-18T12:35:41.834Z,98527.00
2022-08-18T12:38:14.050Z,98527.00
2022-08-18T12:40:47.800Z,98543.00
2022-08-18T12:43:14.678Z,98531.00
2022-08-18T12:45:47.837Z,98531.00
2022-08-18T12:48:14.833Z,98521.00
2022-08-18T12:53:59.271Z,98515.00
2022-08-18T12:56:29.676Z,98515.00
2022-08-18T12:59:05.199Z,98512.00
2022-08-18T13:01:36.604Z,98502.00
2022-08-18T13:04:14.217Z,98506.00
2022-08-18T13:07:00.707Z,98499.00
2022-08-18T13:09:53.252Z,98502.00
2022-08-18T13:12:27.815Z,98500.00
2022-08-18T13:14:55.909Z,98504.00
2022-08-18T13:17:34.000Z,98498.00
2022-08-18T13:20:21.405Z,98507.00
2022-08-18T13:22:54.862Z,98500.00
2022-08-18T13:25:32.481Z,98508.00
2022-08-18T13:28:12.855Z,98513.00
2022-08-18T13:30:40.689Z,98517.00
2022-08-18T13:33:35.228Z,98519.00
2022-08-18T13:36:06.892Z,98523.00
2022-08-18T13:38:34.725Z,98529.00
2022-08-18T13:41:11.665Z,98535.00
2022-08-18T13:43:49.927Z,98531.00
2022-08-18T13:46:31.212Z,98525.00
2022-08-18T13:49:04.885Z,98520.00
2022-08-18T13:51:37.855Z,98544.00
2022-08-18T13:54:30.423Z,98537.00
2022-08-18T13:57:03.846Z,98531.00
2022-08-18T13:59:37.846Z,98534.00
2022-08-18T14:02:19.950Z,98526.00
2022-08-18T14:04:53.886Z,98526.00
2022-08-18T14:07:27.616Z,98518.00
2022-08-18T14:09:55.625Z,98511.00
2022-08-18T14:12:33.361Z,98517.00
2022-08-18T14:15:00.566Z,98507.00
2022-08-18T14:17:34.877Z,98516.00
2022-08-18T14:20:02.019Z,98527.00
2022-08-18T14:22:35.871Z,98545.00
2022-08-18T14:25:04.249Z,98546.00
2022-08-18T14:27:43.900Z,98529.00
2022-08-18T14:30:23.258Z,98529.00
2022-08-18T14:32:58.222Z,98544.00
2022-08-18T14:36:04.163Z,98527.00
2022-08-18T14:38:24.908Z,98540.00
2022-08-18T14:40:51.787Z,98542.00
2022-08-18T14:43:20.573Z,98546.00
2022-08-18T14:45:58.269Z,98543.00
2022-08-18T14:48:31.901Z,98542.00
2022-08-18T14:51:05.891Z,98537.00
2022-08-18T14:53:42.926Z,98537.00
2022-08-18T14:56:16.907Z,98524.00
2022-08-18T14:58:50.897Z,98519.00
2022-08-18T15:01:18.590Z,98519.00
2022-08-18T15:03:45.506Z,98512.00
2022-08-18T15:06:22.954Z,98517.00
2022-08-18T15:09:00.881Z,98527.00
2022-08-18T15:11:27.787Z,98520.00
2022-08-18T15:14:05.926Z,98529.00
2022-08-18T15:16:39.883Z,98523.00
2022-08-18T15:19:58.796Z,98522.00
2022-08-18T15:21:59.914Z,98515.00
2022-08-18T15:24:27.711Z,98515.00
2022-08-18T15:27:06.229Z,98512.00
2022-08-18T15:29:44.929Z,98521.00
2022-08-18T15:32:11.831Z,98521.00
2022-08-18T15:34:47.129Z,98517.00
2022-08-18T15:37:20.250Z,98523.00
2022-08-18T15:39:56.216Z,98524.00
2022-08-18T15:42:23.190Z,98523.00
2022-08-18T15:44:50.400Z,98522.00
2022-08-18T15:47:25.944Z,98526.00
2022-08-18T15:49:54.982Z,98526.00
2022-08-18T15:52:23.345Z,98538.00
2022-08-18T15:55:02.027Z,98529.00
2022-08-18T15:57:39.106Z,98519.00
2022-08-18T16:00:14.939Z,98510.00
2022-08-18T16:02:44.770Z,98511.00
2022-08-18T16:05:22.949Z,98511.00
2022-08-18T16:07:58.934Z,98517.00
2022-08-18T16:10:33.924Z,98518.00
2022-08-18T16:13:00.880Z,98505.00
2022-08-18T16:15:36.373Z,98505.00
2022-08-18T16:18:04.113Z,98495.00
2022-08-18T16:20:37.961Z,98504.00
2022-08-18T16:23:05.183Z,98511.00
2022-08-18T16:25:38.951Z,98518.00
2022-08-18T16:28:05.893Z,98509.00
2022-08-18T16:30:39.021Z,98512.00
2022-08-18T16:33:06.543Z,98519.00
2022-08-18T16:35:43.525Z,98515.00
2022-08-18T16:38:12.369Z,98516.00
2022-08-18T16:40:39.247Z,98527.00
2022-08-18T16:43:12.990Z,98534.00
2022-08-18T16:45:40.971Z,98544.00
2022-08-18T16:48:16.881Z,98527.00
2022-08-18T16:50:51.003Z,98528.00
2022-08-18T16:53:18.291Z,98515.00
2022-08-18T16:55:51.999Z,98515.00
2022-08-18T16:58:18.924Z,98504.00
2022-08-18T17:00:55.015Z,98500.00
2022-08-18T17:03:23.577Z,98504.00
2022-08-18T17:06:18.015Z,98503.00
2022-08-18T17:08:45.387Z,98503.00
2022-08-18T17:11:22.010Z,98495.00
2022-08-18T17:13:50.530Z,98495.00
2022-08-18T17:16:25.032Z,98477.00
2022-08-18T17:18:52.446Z,98479.00
2022-08-18T17:24:00.611Z,98481.00
2022-08-18T17:26:51.011Z,98477.00
2022-08-18T17:29:22.059Z,98477.00
2022-08-18T17:32:09.069Z,98480.00
2022-08-18T17:34:39.601Z,98474.00
2022-08-18T17:37:16.007Z,98471.00
2022-08-18T17:40:15.182Z,98491.00
2022-08-18T17:42:42.089Z,98504.00
2022-08-18T17:45:21.519Z,98517.00
2022-08-18T17:48:07.137Z,98518.00
2022-08-18T17:50:55.058Z,98505.00
2022-08-18T17:53:22.130Z,98520.00
2022-08-18T17:56:06.053Z,98522.00
2022-08-18T17:58:47.190Z,98525.00
2022-08-18T18:01:21.080Z,98521.00
2022-08-18T18:03:47.956Z,98520.00
2022-08-18T18:06:48.298Z,98528.00
2022-08-18T18:09:22.378Z,98544.00
2022-08-18T18:11:56.040Z,98546.00
2022-08-18T18:14:35.352Z,98549.00
2022-08-18T18:17:26.081Z,98549.00
2022-08-18T18:20:16.688Z,98546.00
2022-08-18T18:22:51.069Z,98545.00
2022-08-18T18:25:34.646Z,98556.00
2022-08-18T18:28:08.078Z,98548.00
2022-08-18T18:30:34.978Z,98539.00
2022-08-18T18:33:21.108Z,98536.00
2022-08-18T18:36:00.086Z,98541.00
2022-08-18T18:38:38.086Z,98539.00
2022-08-18T18:41:14.125Z,98540.00
2022-08-18T18:43:52.088Z,98529.00
2022-08-18T18:46:36.080Z,98529.00
2022-08-18T18:49:11.141Z,98526.00
2022-08-18T18:52:03.109Z,98516.00
2022-08-18T18:55:02.810Z,98524.00
2022-08-18T18:57:56.074Z,98518.00
2022-08-18T19:00:32.515Z,98523.00
2022-08-18T19:03:32.106Z,98523.00
2022-08-18T19:06:32.132Z,98528.00
2022-08-18T19:09:16.024Z,98542.00
2022-08-18T19:12:37.116Z,98554.00
2022-08-18T19:15:11.686Z,98557.00
2022-08-18T19:18:20.084Z,98566.00
2022-08-18T19:22:02.043Z,98566.00
2022-08-18T19:24:20.131Z,98578.00
2022-08-18T19:26:53.990Z,98570.00
2022-08-18T19:29:33.104Z,98577.00
2022-08-18T19:32:17.295Z,98575.00
2022-08-18T19:34:52.725Z,98569.00
2022-08-18T19:37:32.414Z,98580.00
2022-08-18T19:40:21.163Z,98579.00
2022-08-18T19:43:06.582Z,98582.00
2022-08-18T19:46:10.632Z,98577.00
2022-08-18T19:48:54.129Z,98594.00
2022-08-18T19:51:45.115Z,98598.00
2022-08-18T19:54:51.645Z,98594.00
2022-08-18T19:58:04.130Z,98615.00
2022-08-18T20:00:49.773Z,98615.00
2022-08-18T20:03:43.117Z,98618.00
2022-08-18T20:06:45.032Z,98614.00
2022-08-18T20:10:00.142Z,98623.00
2022-08-18T20:12:55.130Z,98616.00
2022-08-18T20:15:25.715Z,98607.00
2022-08-18T20:18:05.140Z,98606.00
2022-08-18T20:20:35.004Z,98610.00
2022-08-18T20:23:08.142Z,98608.00
2022-08-18T20:25:42.210Z,98605.00
2022-08-18T20:28:18.164Z,98608.00
2022-08-18T20:31:06.730Z,98609.00
2022-08-18T20:33:45.159Z,98604.00
2022-08-18T20:36:34.362Z,98615.00
2022-08-18T20:39:08.157Z,98614.00
2022-08-18T20:41:43.034Z,98629.00
2022-08-18T20:44:54.201Z,98633.00
2022-08-18T20:47:49.010Z,98624.00
2022-08-18T20:51:02.171Z,98632.00
2022-08-18T20:54:04.181Z,98640.00
2022-08-18T20:56:53.914Z,98635.00
2022-08-18T20:59:40.189Z,98641.00
2022-08-18T21:02:24.599Z,98645.00
2022-08-18T21:05:00.206Z,98657.00
2022-08-18T21:07:37.762Z,98664.00
2022-08-18T21:10:19.368Z,98651.00
2022-08-18T21:13:00.175Z,98644.00
2022-08-18T21:15:30.137Z,98648.00
2022-08-18T21:18:05.331Z,98650.00
2022-08-18T21:20:32.300Z,98658.00
2022-08-18T21:23:15.200Z,98640.00
2022-08-18T21:26:01.206Z,98641.00
2022-08-18T21:28:34.781Z,98635.00
2022-08-18T21:31:42.699Z,98637.00
2022-08-18T21:34:03.123Z,98643.00
2022-08-18T21:36:36.214Z,98646.00
2022-08-18T21:39:14.466Z,98642.00
2022-08-18T21:41:51.212Z,98637.00
2022-08-18T21:44:41.759Z,98633.00
2022-08-18T21:47:43.197Z,98631.00
2022-08-18T21:50:20.197Z,98628.00
2022-08-18T21:53:07.198Z,98624.00
2022-08-18T21:55:43.065Z,98624.00
2022-08-18T21:58:33.967Z,98621.00
2022-08-18T22:01:26.450Z,98623.00
2022-08-18T22:04:09.227Z,98621.00
2022-08-18T22:06:40.955Z,98621.00
2022-08-18T22:09:17.242Z,98622.00
2022-08-18T22:12:00.553Z,98621.00
2022-08-18T22:14:55.022Z,98613.00
2022-08-18T22:17:34.531Z,98611.00
2022-08-18T22:20:57.226Z,98620.00
2022-08-18T22:23:41.599Z,98610.00
2022-08-18T22:26:36.233Z,98591.00
2022-08-18T22:29:06.508Z,98588.00
2022-08-18T22:31:49.227Z,98584.00
2022-08-18T22:34:27.401Z,98579.00
2022-08-18T22:36:59.804Z,98585.00
2022-08-18T22:39:44.270Z,98585.00
2022-08-18T22:42:18.257Z,98572.00
2022-08-18T22:44:45.188Z,98567.00
2022-08-18T22:47:18.231Z,98567.00
2022-08-18T22:49:51.277Z,98558.00
2022-08-18T22:52:39.999Z,98549.00
2022-08-18T22:55:16.481Z,98553.00
2022-08-18T22:57:56.329Z,98537.00
2022-08-18T23:00:37.368Z,98541.00
2022-08-18T23:03:06.619Z,98539.00
2022-08-18T23:05:40.241Z,98527.00
2022-08-18T23:08:13.254Z,98529.00
2022-08-18T23:10:40.154Z,98523.00
2022-08-18T23:13:07.045Z,98506.00
2022-08-18T23:15:40.280Z,98508.00
2022-08-18T23:18:14.299Z,98510.00
2022-08-18T23:20:47.281Z,98508.00
2022-08-18T23:23:18.922Z,98505.00
2022-08-18T23:25:45.965Z,98490.00
2022-08-18T23:28:27.324Z,98480.00
2022-08-18T23:30:54.900Z,98476.00
2022-08-18T23:33:21.902Z,98463.00
2022-08-18T23:35:55.279Z,98473.00
2022-08-18T23:38:31.491Z,98467.00
2022-08-18T23:40:59.181Z,98466.00
2022-08-18T23:43:32.294Z,98453.00
2022-08-18T23:46:05.262Z,98456.00
2022-08-18T23:48:32.166Z,98440.00
2022-08-18T23:51:05.294Z,98428.00
2022-08-18T23:53:33.561Z,98428.00
2022-08-18T23:56:07.285Z,98422.00
2022-08-18T23:58:34.177Z,98412.00
